TAF PHKO
PHKO 270533Z 2706/2806 VRB05KT P6SM FEW050 FM272100 26009KT P6SM SCT050 FM280500 08007KT P6SM FEW050=
METAR PHKO
WC PHKO
WS PHKO
WV PHKO